sensor_id;sensor_type;location;lat;lon;timestamp;temperature;humidity
41756;DHT22;27435;48.480;9.258;2023-02-28T00:01:19;-1.80;91.60
41756;DHT22;27435;48.480;9.258;2023-02-28T00:03:45;-1.90;91.20
41756;DHT22;27435;48.480;9.258;2023-02-28T00:06:10;-1.90;91.60
41756;DHT22;27435;48.480;9.258;2023-02-28T00:08:37;-1.80;90.00
41756;DHT22;27435;48.480;9.258;2023-02-28T00:11:04;-1.90;90.10
41756;DHT22;27435;48.480;9.258;2023-02-28T00:13:30;-2.00;90.30
41756;DHT22;27435;48.480;9.258;2023-02-28T00:16:05;-2.00;91.20
41756;DHT22;27435;48.480;9.258;2023-02-28T00:18:31;-1.90;90.60
41756;DHT22;27435;48.480;9.258;2023-02-28T00:20:58;-2.00;91.50
41756;DHT22;27435;48.480;9.258;2023-02-28T00:23:25;-2.10;91.50
41756;DHT22;27435;48.480;9.258;2023-02-28T00:25:50;-2.10;91.70
41756;DHT22;27435;48.480;9.258;2023-02-28T00:28:16;-2.00;91.20
41756;DHT22;27435;48.480;9.258;2023-02-28T00:30:42;-2.10;91.50
41756;DHT22;27435;48.480;9.258;2023-02-28T00:33:08;-2.30;92.20
41756;DHT22;27435;48.480;9.258;2023-02-28T00:35:34;-2.30;92.70
41756;DHT22;27435;48.480;9.258;2023-02-28T00:37:59;-2.20;92.90
41756;DHT22;27435;48.480;9.258;2023-02-28T00:40:25;-2.10;92.70
41756;DHT22;27435;48.480;9.258;2023-02-28T00:42:50;-2.40;92.90
41756;DHT22;27435;48.480;9.258;2023-02-28T00:45:16;-2.30;93.60
41756;DHT22;27435;48.480;9.258;2023-02-28T00:47:42;-2.40;93.60
41756;DHT22;27435;48.480;9.258;2023-02-28T00:50:08;-2.40;93.80
41756;DHT22;27435;48.480;9.258;2023-02-28T00:52:34;-2.30;94.10
41756;DHT22;27435;48.480;9.258;2023-02-28T00:55:00;-2.40;94.20
41756;DHT22;27435;48.480;9.258;2023-02-28T00:57:25;-2.50;94.90
41756;DHT22;27435;48.480;9.258;2023-02-28T00:59:51;-2.50;95.60
41756;DHT22;27435;48.480;9.258;2023-02-28T01:02:20;-2.40;95.80
41756;DHT22;27435;48.480;9.258;2023-02-28T01:04:46;-2.50;96.60
41756;DHT22;27435;48.480;9.258;2023-02-28T01:07:11;-2.50;96.70
41756;DHT22;27435;48.480;9.258;2023-02-28T01:09:37;-2.60;97.70
41756;DHT22;27435;48.480;9.258;2023-02-28T01:12:03;-2.70;98.70
41756;DHT22;27435;48.480;9.258;2023-02-28T01:14:29;-2.70;99.00
41756;DHT22;27435;48.480;9.258;2023-02-28T01:16:54;-2.70;99.00
41756;DHT22;27435;48.480;9.258;2023-02-28T01:19:20;-2.70;99.00
41756;DHT22;27435;48.480;9.258;2023-02-28T01:21:45;-2.70;99.00
41756;DHT22;27435;48.480;9.258;2023-02-28T01:24:11;-2.70;99.00
41756;DHT22;27435;48.480;9.258;2023-02-28T01:26:36;-2.80;99.00
41756;DHT22;27435;48.480;9.258;2023-02-28T01:29:03;-2.90;99.00
41756;DHT22;27435;48.480;9.258;2023-02-28T01:31:28;-2.90;99.00
41756;DHT22;27435;48.480;9.258;2023-02-28T01:33:54;-2.80;99.00
41756;DHT22;27435;48.480;9.258;2023-02-28T01:36:22;-2.80;99.00
41756;DHT22;27435;48.480;9.258;2023-02-28T01:38:48;-2.80;99.00
41756;DHT22;27435;48.480;9.258;2023-02-28T01:41:23;-2.80;99.00
41756;DHT22;27435;48.480;9.258;2023-02-28T01:46:15;-2.90;99.00
41756;DHT22;27435;48.480;9.258;2023-02-28T01:48:45;-2.90;99.00
41756;DHT22;27435;48.480;9.258;2023-02-28T01:51:17;-2.80;99.00
41756;DHT22;27435;48.480;9.258;2023-02-28T01:53:53;-3.00;99.00
41756;DHT22;27435;48.480;9.258;2023-02-28T01:56:24;-2.90;99.00
41756;DHT22;27435;48.480;9.258;2023-02-28T01:58:53;-2.90;99.00
41756;DHT22;27435;48.480;9.258;2023-02-28T02:01:23;-3.00;99.00
41756;DHT22;27435;48.480;9.258;2023-02-28T02:03:55;-3.00;99.00
41756;DHT22;27435;48.480;9.258;2023-02-28T02:06:42;-2.90;99.00
41756;DHT22;27435;48.480;9.258;2023-02-28T02:09:08;-3.00;99.00
41756;DHT22;27435;48.480;9.258;2023-02-28T02:11:34;-3.10;99.00
41756;DHT22;27435;48.480;9.258;2023-02-28T02:14:09;-3.20;99.00
41756;DHT22;27435;48.480;9.258;2023-02-28T02:17:02;-3.20;99.00
41756;DHT22;27435;48.480;9.258;2023-02-28T02:25:25;-3.20;99.00
41756;DHT22;27435;48.480;9.258;2023-02-28T02:36:25;-3.20;99.00
41756;DHT22;27435;48.480;9.258;2023-02-28T02:39:19;-3.10;99.00
41756;DHT22;27435;48.480;9.258;2023-02-28T02:41:54;-3.10;99.00
41756;DHT22;27435;48.480;9.258;2023-02-28T02:44:25;-3.00;99.00
41756;DHT22;27435;48.480;9.258;2023-02-28T02:46:59;-3.10;99.00
41756;DHT22;27435;48.480;9.258;2023-02-28T02:49:30;-3.00;99.00
41756;DHT22;27435;48.480;9.258;2023-02-28T02:51:59;-3.00;99.00
41756;DHT22;27435;48.480;9.258;2023-02-28T02:54:30;-2.90;99.00
41756;DHT22;27435;48.480;9.258;2023-02-28T02:57:00;-2.90;99.00
41756;DHT22;27435;48.480;9.258;2023-02-28T02:59:28;-2.80;99.00
41756;DHT22;27435;48.480;9.258;2023-02-28T03:01:58;-2.80;99.00
41756;DHT22;27435;48.480;9.258;2023-02-28T03:04:27;-2.80;99.00
41756;DHT22;27435;48.480;9.258;2023-02-28T03:06:55;-2.90;99.00
41756;DHT22;27435;48.480;9.258;2023-02-28T03:09:25;-2.90;99.00
41756;DHT22;27435;48.480;9.258;2023-02-28T03:11:52;-2.80;99.00
41756;DHT22;27435;48.480;9.258;2023-02-28T03:20:18;-2.70;99.00
41756;DHT22;27435;48.480;9.258;2023-02-28T03:23:23;-2.70;99.00
41756;DHT22;27435;48.480;9.258;2023-02-28T03:28:36;-2.70;99.00
41756;DHT22;27435;48.480;9.258;2023-02-28T03:31:29;-2.60;99.00
41756;DHT22;27435;48.480;9.258;2023-02-28T03:34:08;-2.60;99.00
41756;DHT22;27435;48.480;9.258;2023-02-28T03:36:41;-2.60;99.00
41756;DHT22;27435;48.480;9.258;2023-02-28T03:39:15;-2.60;99.00
41756;DHT22;27435;48.480;9.258;2023-02-28T03:41:48;-2.60;99.00
41756;DHT22;27435;48.480;9.258;2023-02-28T03:44:28;-2.60;99.00
41756;DHT22;27435;48.480;9.258;2023-02-28T03:47:02;-2.70;99.00
41756;DHT22;27435;48.480;9.258;2023-02-28T03:49:49;-2.80;99.00
41756;DHT22;27435;48.480;9.258;2023-02-28T03:52:17;-2.60;99.00
41756;DHT22;27435;48.480;9.258;2023-02-28T03:54:49;-2.60;99.00
41756;DHT22;27435;48.480;9.258;2023-02-28T04:00:21;-2.60;99.00
41756;DHT22;27435;48.480;9.258;2023-02-28T04:02:50;-2.60;99.00
41756;DHT22;27435;48.480;9.258;2023-02-28T04:05:21;-2.60;99.00
41756;DHT22;27435;48.480;9.258;2023-02-28T04:07:47;-2.60;99.00
41756;DHT22;27435;48.480;9.258;2023-02-28T04:10:15;-2.50;99.00
41756;DHT22;27435;48.480;9.258;2023-02-28T04:12:41;-2.50;99.00
41756;DHT22;27435;48.480;9.258;2023-02-28T04:15:08;-2.50;99.00
41756;DHT22;27435;48.480;9.258;2023-02-28T04:17:33;-2.50;99.00
41756;DHT22;27435;48.480;9.258;2023-02-28T04:19:59;-2.50;99.00
41756;DHT22;27435;48.480;9.258;2023-02-28T04:22:24;-2.50;99.00
41756;DHT22;27435;48.480;9.258;2023-02-28T04:24:53;-2.60;99.00
41756;DHT22;27435;48.480;9.258;2023-02-28T04:27:20;-2.50;99.00
41756;DHT22;27435;48.480;9.258;2023-02-28T04:29:46;-2.50;99.00
41756;DHT22;27435;48.480;9.258;2023-02-28T04:32:12;-2.50;99.00
41756;DHT22;27435;48.480;9.258;2023-02-28T04:34:38;-2.40;99.00
41756;DHT22;27435;48.480;9.258;2023-02-28T04:37:04;-2.40;99.00
41756;DHT22;27435;48.480;9.258;2023-02-28T04:39:30;-2.50;99.00
41756;DHT22;27435;48.480;9.258;2023-02-28T04:41:55;-2.40;99.00
41756;DHT22;27435;48.480;9.258;2023-02-28T04:44:22;-2.40;99.00
41756;DHT22;27435;48.480;9.258;2023-02-28T04:46:48;-2.30;99.00
41756;DHT22;27435;48.480;9.258;2023-02-28T04:49:14;-2.40;99.00
41756;DHT22;27435;48.480;9.258;2023-02-28T04:51:41;-2.40;99.00
41756;DHT22;27435;48.480;9.258;2023-02-28T04:54:07;-2.40;99.00
41756;DHT22;27435;48.480;9.258;2023-02-28T04:56:33;-2.40;99.00
41756;DHT22;27435;48.480;9.258;2023-02-28T04:58:59;-2.40;99.00
41756;DHT22;27435;48.480;9.258;2023-02-28T05:01:26;-2.40;99.00
41756;DHT22;27435;48.480;9.258;2023-02-28T05:03:53;-2.50;99.00
41756;DHT22;27435;48.480;9.258;2023-02-28T05:06:22;-2.50;99.00
41756;DHT22;27435;48.480;9.258;2023-02-28T05:08:49;-2.40;99.00
41756;DHT22;27435;48.480;9.258;2023-02-28T05:11:27;-2.30;99.00
41756;DHT22;27435;48.480;9.258;2023-02-28T05:13:54;-2.40;99.00
41756;DHT22;27435;48.480;9.258;2023-02-28T05:16:20;-2.50;99.00
41756;DHT22;27435;48.480;9.258;2023-02-28T05:18:46;-2.50;99.00
41756;DHT22;27435;48.480;9.258;2023-02-28T05:21:33;-2.40;99.00
41756;DHT22;27435;48.480;9.258;2023-02-28T05:24:01;-2.30;99.00
41756;DHT22;27435;48.480;9.258;2023-02-28T05:26:27;-2.30;99.00
41756;DHT22;27435;48.480;9.258;2023-02-28T05:28:53;-2.10;99.00
41756;DHT22;27435;48.480;9.258;2023-02-28T05:31:20;-2.30;99.00
41756;DHT22;27435;48.480;9.258;2023-02-28T05:33:46;-2.20;99.00
41756;DHT22;27435;48.480;9.258;2023-02-28T05:36:12;-2.20;99.00
41756;DHT22;27435;48.480;9.258;2023-02-28T05:38:37;-2.20;99.00
41756;DHT22;27435;48.480;9.258;2023-02-28T05:41:10;-2.20;99.00
41756;DHT22;27435;48.480;9.258;2023-02-28T05:43:36;-2.20;99.00
41756;DHT22;27435;48.480;9.258;2023-02-28T05:46:07;-2.20;99.00
41756;DHT22;27435;48.480;9.258;2023-02-28T05:48:34;-2.20;99.00
41756;DHT22;27435;48.480;9.258;2023-02-28T05:51:00;-2.20;99.00
41756;DHT22;27435;48.480;9.258;2023-02-28T05:53:26;-2.20;99.00
41756;DHT22;27435;48.480;9.258;2023-02-28T05:55:52;-2.20;99.00
41756;DHT22;27435;48.480;9.258;2023-02-28T05:58:17;-2.30;99.00
41756;DHT22;27435;48.480;9.258;2023-02-28T06:00:44;-2.20;99.00
41756;DHT22;27435;48.480;9.258;2023-02-28T06:03:09;-2.20;99.00
41756;DHT22;27435;48.480;9.258;2023-02-28T06:05:35;-2.10;99.00
41756;DHT22;27435;48.480;9.258;2023-02-28T06:08:00;-2.10;99.00
41756;DHT22;27435;48.480;9.258;2023-02-28T06:10:26;-2.10;99.00
41756;DHT22;27435;48.480;9.258;2023-02-28T06:12:52;-2.00;99.00
41756;DHT22;27435;48.480;9.258;2023-02-28T06:15:17;-2.10;99.00
41756;DHT22;27435;48.480;9.258;2023-02-28T06:17:44;-2.00;99.00
41756;DHT22;27435;48.480;9.258;2023-02-28T06:20:11;-2.00;99.00
41756;DHT22;27435;48.480;9.258;2023-02-28T06:22:38;-1.90;99.00
41756;DHT22;27435;48.480;9.258;2023-02-28T06:25:05;-2.00;99.00
41756;DHT22;27435;48.480;9.258;2023-02-28T06:27:33;-1.90;99.00
41756;DHT22;27435;48.480;9.258;2023-02-28T06:29:59;-2.00;99.00
41756;DHT22;27435;48.480;9.258;2023-02-28T06:32:24;-1.90;99.00
41756;DHT22;27435;48.480;9.258;2023-02-28T06:34:50;-1.70;99.00
41756;DHT22;27435;48.480;9.258;2023-02-28T06:37:17;-1.90;99.00
41756;DHT22;27435;48.480;9.258;2023-02-28T06:39:43;-1.90;99.00
41756;DHT22;27435;48.480;9.258;2023-02-28T06:42:08;-1.80;99.00
41756;DHT22;27435;48.480;9.258;2023-02-28T06:44:35;-1.80;99.00
41756;DHT22;27435;48.480;9.258;2023-02-28T06:47:05;-1.70;99.00
41756;DHT22;27435;48.480;9.258;2023-02-28T06:49:32;-1.60;98.40
41756;DHT22;27435;48.480;9.258;2023-02-28T06:51:58;-1.60;97.60
41756;DHT22;27435;48.480;9.258;2023-02-28T06:54:24;-1.60;97.90
41756;DHT22;27435;48.480;9.258;2023-02-28T06:56:50;-1.60;97.90
41756;DHT22;27435;48.480;9.258;2023-02-28T06:59:16;-1.40;97.10
41756;DHT22;27435;48.480;9.258;2023-02-28T07:01:43;-1.30;96.70
41756;DHT22;27435;48.480;9.258;2023-02-28T07:04:08;-1.30;96.00
41756;DHT22;27435;48.480;9.258;2023-02-28T07:06:34;-1.30;95.60
41756;DHT22;27435;48.480;9.258;2023-02-28T07:09:00;-1.20;95.50
41756;DHT22;27435;48.480;9.258;2023-02-28T07:11:27;-1.20;94.70
41756;DHT22;27435;48.480;9.258;2023-02-28T07:13:54;-1.20;94.70
41756;DHT22;27435;48.480;9.258;2023-02-28T07:16:21;-1.20;95.60
41756;DHT22;27435;48.480;9.258;2023-02-28T07:18:47;-1.20;94.50
41756;DHT22;27435;48.480;9.258;2023-02-28T07:21:13;-1.30;94.70
41756;DHT22;27435;48.480;9.258;2023-02-28T07:23:39;-1.30;94.30
41756;DHT22;27435;48.480;9.258;2023-02-28T07:26:06;-1.30;95.40
41756;DHT22;27435;48.480;9.258;2023-02-28T07:28:32;-1.30;95.20
41756;DHT22;27435;48.480;9.258;2023-02-28T07:31:03;-1.30;94.90
41756;DHT22;27435;48.480;9.258;2023-02-28T07:33:29;-1.30;95.40
41756;DHT22;27435;48.480;9.258;2023-02-28T07:36:04;-1.20;95.00
41756;DHT22;27435;48.480;9.258;2023-02-28T07:38:30;-1.30;94.40
41756;DHT22;27435;48.480;9.258;2023-02-28T07:40:56;-1.40;94.90
41756;DHT22;27435;48.480;9.258;2023-02-28T07:43:21;-1.30;95.10
41756;DHT22;27435;48.480;9.258;2023-02-28T07:45:47;-1.10;95.00
41756;DHT22;27435;48.480;9.258;2023-02-28T07:48:12;-1.00;94.80
41756;DHT22;27435;48.480;9.258;2023-02-28T07:50:38;-1.10;93.70
41756;DHT22;27435;48.480;9.258;2023-02-28T07:53:04;-1.00;93.40
41756;DHT22;27435;48.480;9.258;2023-02-28T07:55:29;-0.90;93.70
41756;DHT22;27435;48.480;9.258;2023-02-28T07:57:57;-0.90;93.60
41756;DHT22;27435;48.480;9.258;2023-02-28T08:00:23;-1.00;93.50
41756;DHT22;27435;48.480;9.258;2023-02-28T08:02:49;-0.90;92.80
41756;DHT22;27435;48.480;9.258;2023-02-28T08:05:14;-0.80;92.10
41756;DHT22;27435;48.480;9.258;2023-02-28T08:07:40;-0.90;93.10
41756;DHT22;27435;48.480;9.258;2023-02-28T08:10:06;-0.90;93.50
41756;DHT22;27435;48.480;9.258;2023-02-28T08:12:32;-1.00;93.60
41756;DHT22;27435;48.480;9.258;2023-02-28T08:14:58;-1.00;93.00
41756;DHT22;27435;48.480;9.258;2023-02-28T08:17:24;-1.10;93.70
41756;DHT22;27435;48.480;9.258;2023-02-28T08:19:49;-0.90;93.90
41756;DHT22;27435;48.480;9.258;2023-02-28T08:22:15;-1.00;93.80
41756;DHT22;27435;48.480;9.258;2023-02-28T08:24:41;-1.10;94.60
41756;DHT22;27435;48.480;9.258;2023-02-28T08:27:08;-1.10;93.90
41756;DHT22;27435;48.480;9.258;2023-02-28T08:29:33;-1.00;94.10
41756;DHT22;27435;48.480;9.258;2023-02-28T08:32:01;-0.90;93.40
41756;DHT22;27435;48.480;9.258;2023-02-28T08:34:27;-0.90;93.30
41756;DHT22;27435;48.480;9.258;2023-02-28T08:36:52;-0.90;93.20
41756;DHT22;27435;48.480;9.258;2023-02-28T08:39:18;-0.90;93.50
41756;DHT22;27435;48.480;9.258;2023-02-28T08:41:45;-0.90;93.40
41756;DHT22;27435;48.480;9.258;2023-02-28T08:44:10;-0.80;93.40
41756;DHT22;27435;48.480;9.258;2023-02-28T08:46:36;-0.80;93.10
41756;DHT22;27435;48.480;9.258;2023-02-28T08:49:03;-0.90;93.50
41756;DHT22;27435;48.480;9.258;2023-02-28T08:51:29;-0.80;92.80
41756;DHT22;27435;48.480;9.258;2023-02-28T08:53:58;-0.70;92.20
41756;DHT22;27435;48.480;9.258;2023-02-28T08:56:26;-0.60;92.20
41756;DHT22;27435;48.480;9.258;2023-02-28T08:58:55;-0.30;91.50
41756;DHT22;27435;48.480;9.258;2023-02-28T09:01:28;-0.10;91.30
41756;DHT22;27435;48.480;9.258;2023-02-28T09:03:55;-0.20;90.40
41756;DHT22;27435;48.480;9.258;2023-02-28T09:06:23;-0.10;90.10
41756;DHT22;27435;48.480;9.258;2023-02-28T09:08:49;-0.10;90.70
41756;DHT22;27435;48.480;9.258;2023-02-28T09:11:15;0.00;90.50
41756;DHT22;27435;48.480;9.258;2023-02-28T09:13:41;-0.20;90.10
41756;DHT22;27435;48.480;9.258;2023-02-28T09:16:08;-0.20;91.00
41756;DHT22;27435;48.480;9.258;2023-02-28T09:18:37;0.00;89.60
41756;DHT22;27435;48.480;9.258;2023-02-28T09:21:05;-0.20;89.40
41756;DHT22;27435;48.480;9.258;2023-02-28T09:23:31;-0.50;91.20
41756;DHT22;27435;48.480;9.258;2023-02-28T09:25:56;-0.40;91.90
41756;DHT22;27435;48.480;9.258;2023-02-28T09:28:22;-0.40;91.00
41756;DHT22;27435;48.480;9.258;2023-02-28T09:30:50;-0.40;90.80
41756;DHT22;27435;48.480;9.258;2023-02-28T09:33:17;-0.20;89.90
41756;DHT22;27435;48.480;9.258;2023-02-28T09:35:44;-0.10;90.60
41756;DHT22;27435;48.480;9.258;2023-02-28T09:38:10;-0.10;90.10
41756;DHT22;27435;48.480;9.258;2023-02-28T09:40:50;-0.10;90.40
41756;DHT22;27435;48.480;9.258;2023-02-28T09:43:18;-0.20;90.40
41756;DHT22;27435;48.480;9.258;2023-02-28T09:48:45;-0.20;90.60
41756;DHT22;27435;48.480;9.258;2023-02-28T09:53:53;0.30;89.40
41756;DHT22;27435;48.480;9.258;2023-02-28T09:56:28;-0.10;88.90
41756;DHT22;27435;48.480;9.258;2023-02-28T09:59:15;-0.20;90.40
41756;DHT22;27435;48.480;9.258;2023-02-28T10:04:52;0.40;88.90
41756;DHT22;27435;48.480;9.258;2023-02-28T10:09:57;0.30;88.30
41756;DHT22;27435;48.480;9.258;2023-02-28T10:12:24;0.50;87.60
41756;DHT22;27435;48.480;9.258;2023-02-28T10:14:54;0.50;87.40
41756;DHT22;27435;48.480;9.258;2023-02-28T10:17:25;0.60;87.50
41756;DHT22;27435;48.480;9.258;2023-02-28T10:20:07;0.50;88.80
41756;DHT22;27435;48.480;9.258;2023-02-28T10:22:53;0.70;87.40
41756;DHT22;27435;48.480;9.258;2023-02-28T10:25:28;0.70;86.20
41756;DHT22;27435;48.480;9.258;2023-02-28T10:27:58;0.80;87.80
41756;DHT22;27435;48.480;9.258;2023-02-28T10:30:26;0.90;87.00
41756;DHT22;27435;48.480;9.258;2023-02-28T10:32:52;1.00;85.50
41756;DHT22;27435;48.480;9.258;2023-02-28T10:35:26;0.60;86.30
41756;DHT22;27435;48.480;9.258;2023-02-28T10:38:00;0.80;85.70
41756;DHT22;27435;48.480;9.258;2023-02-28T10:40:31;1.30;84.90
41756;DHT22;27435;48.480;9.258;2023-02-28T10:43:00;1.60;83.60
41756;DHT22;27435;48.480;9.258;2023-02-28T10:45:28;1.70;83.30
41756;DHT22;27435;48.480;9.258;2023-02-28T10:48:01;1.60;82.80
41756;DHT22;27435;48.480;9.258;2023-02-28T10:56:04;1.90;81.90
41756;DHT22;27435;48.480;9.258;2023-02-28T10:58:48;1.90;82.20
41756;DHT22;27435;48.480;9.258;2023-02-28T11:03:49;1.70;81.40
41756;DHT22;27435;48.480;9.258;2023-02-28T11:06:21;1.90;81.80
41756;DHT22;27435;48.480;9.258;2023-02-28T11:08:50;1.80;82.50
41756;DHT22;27435;48.480;9.258;2023-02-28T11:11:17;1.90;81.60
41756;DHT22;27435;48.480;9.258;2023-02-28T11:13:45;2.00;81.70
41756;DHT22;27435;48.480;9.258;2023-02-28T11:16:13;2.10;80.60
41756;DHT22;27435;48.480;9.258;2023-02-28T11:18:51;1.90;81.00
41756;DHT22;27435;48.480;9.258;2023-02-28T11:21:26;2.00;81.60
41756;DHT22;27435;48.480;9.258;2023-02-28T11:24:05;1.70;80.90
41756;DHT22;27435;48.480;9.258;2023-02-28T11:29:19;2.10;80.60
41756;DHT22;27435;48.480;9.258;2023-02-28T11:34:29;2.20;81.00
41756;DHT22;27435;48.480;9.258;2023-02-28T11:36:58;2.30;80.60
41756;DHT22;27435;48.480;9.258;2023-02-28T11:39:25;2.40;80.40
41756;DHT22;27435;48.480;9.258;2023-02-28T11:52:55;2.60;78.60
41756;DHT22;27435;48.480;9.258;2023-02-28T11:55:29;2.70;78.80
41756;DHT22;27435;48.480;9.258;2023-02-28T12:01:09;2.40;80.20
41756;DHT22;27435;48.480;9.258;2023-02-28T12:03:42;2.30;80.60
41756;DHT22;27435;48.480;9.258;2023-02-28T12:12:03;2.40;80.40
41756;DHT22;27435;48.480;9.258;2023-02-28T12:17:32;2.40;80.40
41756;DHT22;27435;48.480;9.258;2023-02-28T12:23:17;3.10;79.50
41756;DHT22;27435;48.480;9.258;2023-02-28T12:26:03;2.70;79.10
41756;DHT22;27435;48.480;9.258;2023-02-28T12:28:40;2.70;80.00
41756;DHT22;27435;48.480;9.258;2023-02-28T12:31:21;2.90;80.20
41756;DHT22;27435;48.480;9.258;2023-02-28T12:33:52;3.10;78.60
41756;DHT22;27435;48.480;9.258;2023-02-28T12:36:20;3.40;78.20
41756;DHT22;27435;48.480;9.258;2023-02-28T12:44:06;3.70;76.80
41756;DHT22;27435;48.480;9.258;2023-02-28T12:46:37;4.00;76.20
41756;DHT22;27435;48.480;9.258;2023-02-28T12:49:19;4.00;74.80
41756;DHT22;27435;48.480;9.258;2023-02-28T12:51:48;3.80;75.30
41756;DHT22;27435;48.480;9.258;2023-02-28T12:57:45;4.20;75.80
41756;DHT22;27435;48.480;9.258;2023-02-28T13:00:16;4.20;75.00
41756;DHT22;27435;48.480;9.258;2023-02-28T13:05:53;4.30;73.90
41756;DHT22;27435;48.480;9.258;2023-02-28T13:08:27;3.80;74.80
41756;DHT22;27435;48.480;9.258;2023-02-28T13:10:57;3.80;75.20
41756;DHT22;27435;48.480;9.258;2023-02-28T13:13:30;4.00;75.10
41756;DHT22;27435;48.480;9.258;2023-02-28T13:16:06;3.90;75.80
41756;DHT22;27435;48.480;9.258;2023-02-28T13:18:36;4.00;75.20
41756;DHT22;27435;48.480;9.258;2023-02-28T13:21:03;4.20;75.00
41756;DHT22;27435;48.480;9.258;2023-02-28T13:24:03;4.50;73.30
41756;DHT22;27435;48.480;9.258;2023-02-28T13:39:58;5.10;72.20
41756;DHT22;27435;48.480;9.258;2023-02-28T13:50:20;5.50;71.90
41756;DHT22;27435;48.480;9.258;2023-02-28T14:00:59;5.70;70.90
41756;DHT22;27435;48.480;9.258;2023-02-28T14:06:23;5.90;69.90
41756;DHT22;27435;48.480;9.258;2023-02-28T14:11:33;5.80;70.00
41756;DHT22;27435;48.480;9.258;2023-02-28T14:14:00;5.80;70.70
41756;DHT22;27435;48.480;9.258;2023-02-28T14:16:36;6.00;70.20
41756;DHT22;27435;48.480;9.258;2023-02-28T14:19:22;6.20;69.10
41756;DHT22;27435;48.480;9.258;2023-02-28T14:32:32;6.20;69.20
41756;DHT22;27435;48.480;9.258;2023-02-28T14:37:44;6.40;68.00
41756;DHT22;27435;48.480;9.258;2023-02-28T14:40:20;6.40;68.10
41756;DHT22;27435;48.480;9.258;2023-02-28T14:42:54;6.50;67.70
41756;DHT22;27435;48.480;9.258;2023-02-28T14:45:22;6.30;68.10
41756;DHT22;27435;48.480;9.258;2023-02-28T14:47:50;5.90;68.50
41756;DHT22;27435;48.480;9.258;2023-02-28T14:50:33;6.00;68.60
41756;DHT22;27435;48.480;9.258;2023-02-28T14:53:01;6.00;69.40
41756;DHT22;27435;48.480;9.258;2023-02-28T14:55:36;6.50;67.90
41756;DHT22;27435;48.480;9.258;2023-02-28T14:58:28;6.40;67.60
41756;DHT22;27435;48.480;9.258;2023-02-28T15:00:56;6.50;67.50
41756;DHT22;27435;48.480;9.258;2023-02-28T15:06:01;6.50;67.80
41756;DHT22;27435;48.480;9.258;2023-02-28T15:08:28;6.10;67.70
41756;DHT22;27435;48.480;9.258;2023-02-28T15:11:16;6.20;67.60
41756;DHT22;27435;48.480;9.258;2023-02-28T15:13:54;6.60;67.50
41756;DHT22;27435;48.480;9.258;2023-02-28T15:16:28;6.60;67.90
41756;DHT22;27435;48.480;9.258;2023-02-28T15:21:27;6.70;66.50
41756;DHT22;27435;48.480;9.258;2023-02-28T15:24:11;6.50;67.00
41756;DHT22;27435;48.480;9.258;2023-02-28T15:26:44;6.50;67.20
41756;DHT22;27435;48.480;9.258;2023-02-28T15:29:17;6.70;66.10
41756;DHT22;27435;48.480;9.258;2023-02-28T15:31:46;7.10;66.50
41756;DHT22;27435;48.480;9.258;2023-02-28T15:34:22;7.40;65.60
41756;DHT22;27435;48.480;9.258;2023-02-28T15:36:48;7.30;64.30
41756;DHT22;27435;48.480;9.258;2023-02-28T15:39:23;6.70;65.80
41756;DHT22;27435;48.480;9.258;2023-02-28T15:41:49;6.60;66.50
41756;DHT22;27435;48.480;9.258;2023-02-28T15:47:11;6.90;65.50
41756;DHT22;27435;48.480;9.258;2023-02-28T15:49:51;6.70;65.90
41756;DHT22;27435;48.480;9.258;2023-02-28T15:52:53;6.50;66.80
41756;DHT22;27435;48.480;9.258;2023-02-28T15:55:25;6.80;66.30
41756;DHT22;27435;48.480;9.258;2023-02-28T15:57:54;7.10;65.50
41756;DHT22;27435;48.480;9.258;2023-02-28T16:00:22;6.90;66.50
41756;DHT22;27435;48.480;9.258;2023-02-28T16:02:48;6.70;66.00
41756;DHT22;27435;48.480;9.258;2023-02-28T16:05:21;6.00;67.90
41756;DHT22;27435;48.480;9.258;2023-02-28T16:07:53;6.00;68.50
41756;DHT22;27435;48.480;9.258;2023-02-28T16:10:20;5.70;68.90
41756;DHT22;27435;48.480;9.258;2023-02-28T16:12:46;5.80;69.50
41756;DHT22;27435;48.480;9.258;2023-02-28T16:15:19;6.00;69.00
41756;DHT22;27435;48.480;9.258;2023-02-28T16:17:45;6.20;68.60
41756;DHT22;27435;48.480;9.258;2023-02-28T16:20:32;6.00;68.80
41756;DHT22;27435;48.480;9.258;2023-02-28T16:22:57;6.30;68.70
41756;DHT22;27435;48.480;9.258;2023-02-28T16:25:33;6.30;67.90
41756;DHT22;27435;48.480;9.258;2023-02-28T16:27:59;6.30;68.20
41756;DHT22;27435;48.480;9.258;2023-02-28T16:30:28;6.20;68.00
41756;DHT22;27435;48.480;9.258;2023-02-28T16:32:56;5.80;68.30
41756;DHT22;27435;48.480;9.258;2023-02-28T16:35:22;5.60;68.90
41756;DHT22;27435;48.480;9.258;2023-02-28T16:37:49;5.60;69.30
41756;DHT22;27435;48.480;9.258;2023-02-28T16:40:23;5.30;69.50
41756;DHT22;27435;48.480;9.258;2023-02-28T16:42:52;5.10;70.20
41756;DHT22;27435;48.480;9.258;2023-02-28T16:45:24;4.90;71.20
41756;DHT22;27435;48.480;9.258;2023-02-28T16:47:50;4.60;71.70
41756;DHT22;27435;48.480;9.258;2023-02-28T16:50:25;4.50;71.80
41756;DHT22;27435;48.480;9.258;2023-02-28T16:52:51;4.40;72.10
41756;DHT22;27435;48.480;9.258;2023-02-28T16:55:24;4.20;73.10
41756;DHT22;27435;48.480;9.258;2023-02-28T16:57:55;3.80;74.00
41756;DHT22;27435;48.480;9.258;2023-02-28T17:00:21;3.50;75.10
41756;DHT22;27435;48.480;9.258;2023-02-28T17:02:47;3.30;75.70
41756;DHT22;27435;48.480;9.258;2023-02-28T17:05:13;3.00;76.10
41756;DHT22;27435;48.480;9.258;2023-02-28T17:07:42;2.80;76.80
41756;DHT22;27435;48.480;9.258;2023-02-28T17:10:22;2.70;77.80
41756;DHT22;27435;48.480;9.258;2023-02-28T17:12:48;2.50;78.10
41756;DHT22;27435;48.480;9.258;2023-02-28T17:15:16;2.50;78.70
41756;DHT22;27435;48.480;9.258;2023-02-28T17:17:43;2.50;78.90
41756;DHT22;27435;48.480;9.258;2023-02-28T17:20:21;2.30;79.10
41756;DHT22;27435;48.480;9.258;2023-02-28T17:22:52;2.20;79.80
41756;DHT22;27435;48.480;9.258;2023-02-28T17:25:18;2.20;79.50
41756;DHT22;27435;48.480;9.258;2023-02-28T17:27:45;2.00;79.90
41756;DHT22;27435;48.480;9.258;2023-02-28T17:30:15;2.00;80.20
41756;DHT22;27435;48.480;9.258;2023-02-28T17:32:42;2.10;80.60
41756;DHT22;27435;48.480;9.258;2023-02-28T17:35:08;2.00;80.10
41756;DHT22;27435;48.480;9.258;2023-02-28T17:37:34;1.80;81.10
41756;DHT22;27435;48.480;9.258;2023-02-28T17:39:59;1.80;81.40
41756;DHT22;27435;48.480;9.258;2023-02-28T17:42:25;1.70;81.50
41756;DHT22;27435;48.480;9.258;2023-02-28T17:44:51;1.70;82.20
41756;DHT22;27435;48.480;9.258;2023-02-28T17:47:16;1.70;82.10
41756;DHT22;27435;48.480;9.258;2023-02-28T17:49:42;1.60;82.10
41756;DHT22;27435;48.480;9.258;2023-02-28T17:52:08;1.50;82.30
41756;DHT22;27435;48.480;9.258;2023-02-28T17:54:34;1.40;83.10
41756;DHT22;27435;48.480;9.258;2023-02-28T17:56:59;1.40;83.80
41756;DHT22;27435;48.480;9.258;2023-02-28T17:59:25;1.30;83.60
41756;DHT22;27435;48.480;9.258;2023-02-28T18:02:01;1.20;83.90
41756;DHT22;27435;48.480;9.258;2023-02-28T18:04:27;1.10;84.00
41756;DHT22;27435;48.480;9.258;2023-02-28T18:10:05;1.00;84.70
41756;DHT22;27435;48.480;9.258;2023-02-28T18:12:51;0.80;85.50
41756;DHT22;27435;48.480;9.258;2023-02-28T18:15:18;0.70;86.20
41756;DHT22;27435;48.480;9.258;2023-02-28T18:17:48;0.60;86.50
41756;DHT22;27435;48.480;9.258;2023-02-28T18:20:14;0.50;87.30
41756;DHT22;27435;48.480;9.258;2023-02-28T18:22:41;0.50;87.40